sensor_id;sensor_type;location;lat;lon;timestamp;P1;durP1;ratioP1;P2;durP2;ratioP2
11568;SDS011;5840;46.894;15.542;2023-07-16T00:02:03;10.87;;;10.07;;
11568;SDS011;5840;46.894;15.542;2023-07-16T00:04:30;10.43;;;9.63;;
11568;SDS011;5840;46.894;15.542;2023-07-16T00:06:58;12.03;;;10.83;;
11568;SDS011;5840;46.894;15.542;2023-07-16T00:09:25;9.77;;;9.00;;
11568;SDS011;5840;46.894;15.542;2023-07-16T00:11:54;9.87;;;9.13;;
11568;SDS011;5840;46.894;15.542;2023-07-16T00:14:22;10.60;;;9.63;;
11568;SDS011;5840;46.894;15.542;2023-07-16T00:16:49;10.30;;;9.50;;
11568;SDS011;5840;46.894;15.542;2023-07-16T00:19:15;9.93;;;9.10;;
11568;SDS011;5840;46.894;15.542;2023-07-16T00:21:42;8.70;;;8.10;;
11568;SDS011;5840;46.894;15.542;2023-07-16T00:24:09;9.47;;;8.67;;
11568;SDS011;5840;46.894;15.542;2023-07-16T00:26:36;9.23;;;8.53;;
11568;SDS011;5840;46.894;15.542;2023-07-16T00:29:04;13.03;;;11.90;;
11568;SDS011;5840;46.894;15.542;2023-07-16T00:31:31;10.27;;;9.47;;
11568;SDS011;5840;46.894;15.542;2023-07-16T00:33:58;10.23;;;9.43;;
11568;SDS011;5840;46.894;15.542;2023-07-16T00:36:25;9.53;;;8.63;;
11568;SDS011;5840;46.894;15.542;2023-07-16T00:38:52;11.03;;;10.03;;
11568;SDS011;5840;46.894;15.542;2023-07-16T00:41:19;11.37;;;10.30;;
11568;SDS011;5840;46.894;15.542;2023-07-16T00:43:46;10.53;;;9.43;;
11568;SDS011;5840;46.894;15.542;2023-07-16T00:46:14;10.40;;;9.07;;
11568;SDS011;5840;46.894;15.542;2023-07-16T00:48:42;12.80;;;11.57;;
11568;SDS011;5840;46.894;15.542;2023-07-16T00:51:09;11.37;;;10.37;;
11568;SDS011;5840;46.894;15.542;2023-07-16T00:53:36;9.90;;;9.20;;
11568;SDS011;5840;46.894;15.542;2023-07-16T00:56:04;10.23;;;9.33;;
11568;SDS011;5840;46.894;15.542;2023-07-16T00:58:32;10.43;;;9.50;;
11568;SDS011;5840;46.894;15.542;2023-07-16T01:00:58;10.83;;;10.03;;
11568;SDS011;5840;46.894;15.542;2023-07-16T01:03:27;11.07;;;10.07;;
11568;SDS011;5840;46.894;15.542;2023-07-16T01:05:55;9.67;;;8.77;;
11568;SDS011;5840;46.894;15.542;2023-07-16T01:08:28;10.40;;;9.60;;
11568;SDS011;5840;46.894;15.542;2023-07-16T01:10:59;11.37;;;10.33;;
11568;SDS011;5840;46.894;15.542;2023-07-16T01:13:26;9.97;;;9.17;;
11568;SDS011;5840;46.894;15.542;2023-07-16T01:15:54;10.13;;;9.30;;
11568;SDS011;5840;46.894;15.542;2023-07-16T01:18:21;11.90;;;10.60;;
11568;SDS011;5840;46.894;15.542;2023-07-16T01:20:50;10.00;;;9.20;;
11568;SDS011;5840;46.894;15.542;2023-07-16T01:23:26;11.13;;;10.23;;
11568;SDS011;5840;46.894;15.542;2023-07-16T01:26:06;11.03;;;9.93;;
11568;SDS011;5840;46.894;15.542;2023-07-16T01:32:00;10.47;;;9.67;;
11568;SDS011;5840;46.894;15.542;2023-07-16T01:34:29;10.97;;;9.97;;
11568;SDS011;5840;46.894;15.542;2023-07-16T01:36:59;11.43;;;10.43;;
11568;SDS011;5840;46.894;15.542;2023-07-16T01:39:27;10.73;;;9.80;;
11568;SDS011;5840;46.894;15.542;2023-07-16T01:41:54;10.40;;;9.70;;
11568;SDS011;5840;46.894;15.542;2023-07-16T01:44:20;9.90;;;9.20;;
11568;SDS011;5840;46.894;15.542;2023-07-16T01:46:49;9.60;;;8.70;;
11568;SDS011;5840;46.894;15.542;2023-07-16T01:49:33;10.00;;;9.20;;
11568;SDS011;5840;46.894;15.542;2023-07-16T01:52:00;10.93;;;10.03;;
11568;SDS011;5840;46.894;15.542;2023-07-16T01:54:28;10.60;;;9.80;;
11568;SDS011;5840;46.894;15.542;2023-07-16T01:56:56;10.17;;;9.33;;
11568;SDS011;5840;46.894;15.542;2023-07-16T01:59:23;10.50;;;9.50;;
11568;SDS011;5840;46.894;15.542;2023-07-16T02:01:49;10.37;;;9.57;;
11568;SDS011;5840;46.894;15.542;2023-07-16T02:04:16;9.83;;;9.03;;
11568;SDS011;5840;46.894;15.542;2023-07-16T02:06:44;10.53;;;9.70;;
11568;SDS011;5840;46.894;15.542;2023-07-16T02:09:13;9.37;;;8.53;;
11568;SDS011;5840;46.894;15.542;2023-07-16T02:11:40;8.70;;;8.00;;
11568;SDS011;5840;46.894;15.542;2023-07-16T02:14:07;8.60;;;7.97;;
11568;SDS011;5840;46.894;15.542;2023-07-16T02:16:33;9.60;;;8.90;;
11568;SDS011;5840;46.894;15.542;2023-07-16T02:19:00;9.50;;;8.77;;
11568;SDS011;5840;46.894;15.542;2023-07-16T02:21:27;10.73;;;9.83;;
11568;SDS011;5840;46.894;15.542;2023-07-16T02:23:55;10.50;;;9.63;;
11568;SDS011;5840;46.894;15.542;2023-07-16T02:26:22;9.63;;;8.93;;
11568;SDS011;5840;46.894;15.542;2023-07-16T02:28:49;9.50;;;8.90;;
11568;SDS011;5840;46.894;15.542;2023-07-16T02:31:16;9.77;;;9.00;;
11568;SDS011;5840;46.894;15.542;2023-07-16T02:33:43;9.50;;;8.87;;
11568;SDS011;5840;46.894;15.542;2023-07-16T02:36:10;10.00;;;9.20;;
11568;SDS011;5840;46.894;15.542;2023-07-16T02:38:37;9.67;;;8.97;;
11568;SDS011;5840;46.894;15.542;2023-07-16T02:41:05;9.07;;;8.33;;
11568;SDS011;5840;46.894;15.542;2023-07-16T02:43:32;9.67;;;8.97;;
11568;SDS011;5840;46.894;15.542;2023-07-16T02:45:59;9.17;;;8.47;;
11568;SDS011;5840;46.894;15.542;2023-07-16T02:48:26;10.10;;;9.40;;
11568;SDS011;5840;46.894;15.542;2023-07-16T02:50:52;10.50;;;9.80;;
11568;SDS011;5840;46.894;15.542;2023-07-16T02:53:19;9.83;;;9.03;;
11568;SDS011;5840;46.894;15.542;2023-07-16T02:55:46;9.93;;;9.20;;
11568;SDS011;5840;46.894;15.542;2023-07-16T02:58:14;9.90;;;9.13;;
11568;SDS011;5840;46.894;15.542;2023-07-16T03:00:41;9.80;;;8.97;;
11568;SDS011;5840;46.894;15.542;2023-07-16T03:03:08;10.70;;;9.90;;
11568;SDS011;5840;46.894;15.542;2023-07-16T03:05:35;10.23;;;9.43;;
11568;SDS011;5840;46.894;15.542;2023-07-16T03:08:02;10.80;;;9.90;;
11568;SDS011;5840;46.894;15.542;2023-07-16T03:10:29;9.40;;;8.60;;
11568;SDS011;5840;46.894;15.542;2023-07-16T03:12:56;9.63;;;8.93;;
11568;SDS011;5840;46.894;15.542;2023-07-16T03:15:24;9.20;;;8.40;;
11568;SDS011;5840;46.894;15.542;2023-07-16T03:17:51;9.93;;;9.13;;
11568;SDS011;5840;46.894;15.542;2023-07-16T03:20:18;9.57;;;8.77;;
11568;SDS011;5840;46.894;15.542;2023-07-16T03:22:45;9.33;;;8.63;;
11568;SDS011;5840;46.894;15.542;2023-07-16T03:25:12;10.37;;;9.57;;
11568;SDS011;5840;46.894;15.542;2023-07-16T03:27:39;10.40;;;9.43;;
11568;SDS011;5840;46.894;15.542;2023-07-16T03:30:07;10.20;;;9.20;;
11568;SDS011;5840;46.894;15.542;2023-07-16T03:32:35;9.33;;;8.50;;
11568;SDS011;5840;46.894;15.542;2023-07-16T03:35:02;11.23;;;9.77;;
11568;SDS011;5840;46.894;15.542;2023-07-16T03:37:30;9.90;;;9.10;;
11568;SDS011;5840;46.894;15.542;2023-07-16T03:40:11;10.40;;;9.60;;
11568;SDS011;5840;46.894;15.542;2023-07-16T03:42:38;9.70;;;9.00;;
11568;SDS011;5840;46.894;15.542;2023-07-16T03:45:05;9.93;;;9.13;;
11568;SDS011;5840;46.894;15.542;2023-07-16T03:47:33;9.43;;;8.73;;
11568;SDS011;5840;46.894;15.542;2023-07-16T03:50:01;10.13;;;9.33;;
11568;SDS011;5840;46.894;15.542;2023-07-16T03:52:29;9.03;;;8.43;;
11568;SDS011;5840;46.894;15.542;2023-07-16T03:54:55;9.73;;;9.03;;
11568;SDS011;5840;46.894;15.542;2023-07-16T03:57:22;10.03;;;9.23;;
11568;SDS011;5840;46.894;15.542;2023-07-16T03:59:49;10.17;;;9.47;;
11568;SDS011;5840;46.894;15.542;2023-07-16T04:02:16;10.10;;;9.30;;
11568;SDS011;5840;46.894;15.542;2023-07-16T04:04:43;9.77;;;9.07;;
11568;SDS011;5840;46.894;15.542;2023-07-16T04:07:11;10.07;;;9.27;;
11568;SDS011;5840;46.894;15.542;2023-07-16T04:09:38;10.30;;;9.50;;
11568;SDS011;5840;46.894;15.542;2023-07-16T04:12:06;10.23;;;9.53;;
11568;SDS011;5840;46.894;15.542;2023-07-16T04:14:33;9.97;;;9.27;;
11568;SDS011;5840;46.894;15.542;2023-07-16T04:17:00;22.17;;;20.47;;
11568;SDS011;5840;46.894;15.542;2023-07-16T04:19:27;11.10;;;10.40;;
11568;SDS011;5840;46.894;15.542;2023-07-16T04:21:54;15.50;;;14.33;;
11568;SDS011;5840;46.894;15.542;2023-07-16T04:24:23;11.27;;;10.37;;
11568;SDS011;5840;46.894;15.542;2023-07-16T04:26:51;10.37;;;9.47;;
11568;SDS011;5840;46.894;15.542;2023-07-16T04:29:18;12.03;;;10.60;;
11568;SDS011;5840;46.894;15.542;2023-07-16T04:31:45;11.47;;;10.43;;
11568;SDS011;5840;46.894;15.542;2023-07-16T04:34:12;10.70;;;9.90;;
11568;SDS011;5840;46.894;15.542;2023-07-16T04:36:39;10.97;;;10.17;;
11568;SDS011;5840;46.894;15.542;2023-07-16T04:39:08;11.73;;;10.63;;
11568;SDS011;5840;46.894;15.542;2023-07-16T04:41:36;11.00;;;10.10;;
11568;SDS011;5840;46.894;15.542;2023-07-16T04:44:04;10.63;;;9.73;;
11568;SDS011;5840;46.894;15.542;2023-07-16T04:46:31;10.00;;;9.20;;
11568;SDS011;5840;46.894;15.542;2023-07-16T04:48:58;10.53;;;9.60;;
11568;SDS011;5840;46.894;15.542;2023-07-16T04:51:24;9.87;;;9.17;;
11568;SDS011;5840;46.894;15.542;2023-07-16T04:53:51;10.40;;;9.57;;
11568;SDS011;5840;46.894;15.542;2023-07-16T04:56:18;10.27;;;9.47;;
11568;SDS011;5840;46.894;15.542;2023-07-16T04:58:46;10.37;;;9.50;;
11568;SDS011;5840;46.894;15.542;2023-07-16T05:01:13;11.00;;;10.10;;
11568;SDS011;5840;46.894;15.542;2023-07-16T05:03:40;10.23;;;9.40;;
11568;SDS011;5840;46.894;15.542;2023-07-16T05:06:07;10.30;;;9.40;;
11568;SDS011;5840;46.894;15.542;2023-07-16T05:08:35;12.27;;;11.20;;
11568;SDS011;5840;46.894;15.542;2023-07-16T05:11:02;12.20;;;11.20;;
11568;SDS011;5840;46.894;15.542;2023-07-16T05:13:29;12.80;;;11.63;;
11568;SDS011;5840;46.894;15.542;2023-07-16T05:15:57;12.27;;;11.23;;
11568;SDS011;5840;46.894;15.542;2023-07-16T05:18:24;11.93;;;11.03;;
11568;SDS011;5840;46.894;15.542;2023-07-16T05:20:51;12.90;;;11.80;;
11568;SDS011;5840;46.894;15.542;2023-07-16T05:23:18;12.77;;;11.57;;
11568;SDS011;5840;46.894;15.542;2023-07-16T05:25:45;11.63;;;10.73;;
11568;SDS011;5840;46.894;15.542;2023-07-16T05:28:13;11.93;;;11.13;;
11568;SDS011;5840;46.894;15.542;2023-07-16T05:30:40;10.67;;;9.87;;
11568;SDS011;5840;46.894;15.542;2023-07-16T05:33:08;10.60;;;9.80;;
11568;SDS011;5840;46.894;15.542;2023-07-16T05:35:36;10.23;;;9.33;;
11568;SDS011;5840;46.894;15.542;2023-07-16T05:38:02;10.70;;;9.90;;
11568;SDS011;5840;46.894;15.542;2023-07-16T05:40:29;10.17;;;9.30;;
11568;SDS011;5840;46.894;15.542;2023-07-16T05:42:56;11.37;;;10.50;;
11568;SDS011;5840;46.894;15.542;2023-07-16T05:45:23;11.17;;;10.33;;
11568;SDS011;5840;46.894;15.542;2023-07-16T05:47:50;11.47;;;10.60;;
11568;SDS011;5840;46.894;15.542;2023-07-16T05:50:18;10.53;;;9.63;;
11568;SDS011;5840;46.894;15.542;2023-07-16T05:52:45;10.53;;;9.73;;
11568;SDS011;5840;46.894;15.542;2023-07-16T05:55:13;10.80;;;9.90;;
11568;SDS011;5840;46.894;15.542;2023-07-16T05:57:41;11.47;;;10.37;;
11568;SDS011;5840;46.894;15.542;2023-07-16T06:00:08;9.90;;;9.20;;
11568;SDS011;5840;46.894;15.542;2023-07-16T06:02:36;11.73;;;10.73;;
11568;SDS011;5840;46.894;15.542;2023-07-16T06:05:03;12.57;;;11.53;;
11568;SDS011;5840;46.894;15.542;2023-07-16T06:07:31;12.13;;;11.23;;
11568;SDS011;5840;46.894;15.542;2023-07-16T06:09:58;11.73;;;10.93;;
11568;SDS011;5840;46.894;15.542;2023-07-16T06:12:25;12.00;;;10.93;;
11568;SDS011;5840;46.894;15.542;2023-07-16T06:14:52;12.63;;;11.40;;
11568;SDS011;5840;46.894;15.542;2023-07-16T06:17:19;11.40;;;10.27;;
11568;SDS011;5840;46.894;15.542;2023-07-16T06:19:46;11.80;;;10.73;;
11568;SDS011;5840;46.894;15.542;2023-07-16T06:22:15;11.93;;;11.03;;
11568;SDS011;5840;46.894;15.542;2023-07-16T06:24:43;11.17;;;10.33;;
11568;SDS011;5840;46.894;15.542;2023-07-16T06:27:10;11.43;;;10.63;;
11568;SDS011;5840;46.894;15.542;2023-07-16T06:29:37;11.33;;;10.63;;
11568;SDS011;5840;46.894;15.542;2023-07-16T06:32:04;11.90;;;11.03;;
11568;SDS011;5840;46.894;15.542;2023-07-16T06:34:31;11.23;;;10.37;;
11568;SDS011;5840;46.894;15.542;2023-07-16T06:36:58;10.70;;;9.70;;
11568;SDS011;5840;46.894;15.542;2023-07-16T06:39:25;10.37;;;9.47;;
11568;SDS011;5840;46.894;15.542;2023-07-16T06:41:54;10.93;;;10.00;;
11568;SDS011;5840;46.894;15.542;2023-07-16T06:44:21;11.13;;;10.33;;
11568;SDS011;5840;46.894;15.542;2023-07-16T06:46:48;10.10;;;9.20;;
11568;SDS011;5840;46.894;15.542;2023-07-16T06:49:15;9.70;;;9.07;;
11568;SDS011;5840;46.894;15.542;2023-07-16T06:51:42;11.03;;;10.07;;
11568;SDS011;5840;46.894;15.542;2023-07-16T06:54:09;11.23;;;10.33;;
11568;SDS011;5840;46.894;15.542;2023-07-16T06:56:36;10.87;;;9.83;;
11568;SDS011;5840;46.894;15.542;2023-07-16T06:59:04;9.83;;;9.13;;
11568;SDS011;5840;46.894;15.542;2023-07-16T07:01:31;9.57;;;8.77;;
11568;SDS011;5840;46.894;15.542;2023-07-16T07:03:58;10.13;;;9.33;;
11568;SDS011;5840;46.894;15.542;2023-07-16T07:06:25;9.80;;;9.00;;
11568;SDS011;5840;46.894;15.542;2023-07-16T07:08:52;9.40;;;8.63;;
11568;SDS011;5840;46.894;15.542;2023-07-16T07:11:19;8.90;;;8.23;;
11568;SDS011;5840;46.894;15.542;2023-07-16T07:13:46;9.47;;;8.57;;
11568;SDS011;5840;46.894;15.542;2023-07-16T07:16:14;9.10;;;8.50;;
11568;SDS011;5840;46.894;15.542;2023-07-16T07:18:41;9.93;;;9.13;;
11568;SDS011;5840;46.894;15.542;2023-07-16T07:21:08;9.23;;;8.53;;
11568;SDS011;5840;46.894;15.542;2023-07-16T07:23:35;9.47;;;8.70;;
11568;SDS011;5840;46.894;15.542;2023-07-16T07:26:01;9.57;;;8.67;;
11568;SDS011;5840;46.894;15.542;2023-07-16T07:28:28;9.23;;;8.53;;
11568;SDS011;5840;46.894;15.542;2023-07-16T07:30:55;9.47;;;8.87;;
11568;SDS011;5840;46.894;15.542;2023-07-16T07:33:24;9.60;;;8.90;;
11568;SDS011;5840;46.894;15.542;2023-07-16T07:35:53;9.43;;;8.73;;
11568;SDS011;5840;46.894;15.542;2023-07-16T07:38:20;8.50;;;7.80;;
11568;SDS011;5840;46.894;15.542;2023-07-16T07:40:47;9.77;;;8.93;;
11568;SDS011;5840;46.894;15.542;2023-07-16T07:43:14;8.87;;;8.17;;
11568;SDS011;5840;46.894;15.542;2023-07-16T07:45:41;9.23;;;8.53;;
11568;SDS011;5840;46.894;15.542;2023-07-16T07:48:08;9.03;;;8.30;;
11568;SDS011;5840;46.894;15.542;2023-07-16T07:50:36;9.37;;;8.77;;
11568;SDS011;5840;46.894;15.542;2023-07-16T07:53:03;8.73;;;8.13;;
11568;SDS011;5840;46.894;15.542;2023-07-16T07:55:33;8.47;;;7.77;;
11568;SDS011;5840;46.894;15.542;2023-07-16T07:58:00;8.73;;;7.93;;
11568;SDS011;5840;46.894;15.542;2023-07-16T08:00:27;9.37;;;8.60;;
11568;SDS011;5840;46.894;15.542;2023-07-16T08:02:54;9.07;;;8.37;;
11568;SDS011;5840;46.894;15.542;2023-07-16T08:05:21;9.30;;;8.67;;
11568;SDS011;5840;46.894;15.542;2023-07-16T08:07:49;8.27;;;7.67;;
11568;SDS011;5840;46.894;15.542;2023-07-16T08:10:17;9.33;;;8.50;;
11568;SDS011;5840;46.894;15.542;2023-07-16T08:12:44;8.20;;;7.50;;
11568;SDS011;5840;46.894;15.542;2023-07-16T08:15:11;8.33;;;7.73;;
11568;SDS011;5840;46.894;15.542;2023-07-16T08:17:40;7.97;;;7.27;;
11568;SDS011;5840;46.894;15.542;2023-07-16T08:20:07;7.03;;;6.50;;
11568;SDS011;5840;46.894;15.542;2023-07-16T08:22:35;8.47;;;7.63;;
11568;SDS011;5840;46.894;15.542;2023-07-16T08:25:03;8.50;;;7.80;;
11568;SDS011;5840;46.894;15.542;2023-07-16T08:27:31;8.10;;;7.30;;
11568;SDS011;5840;46.894;15.542;2023-07-16T08:29:58;7.93;;;7.33;;
11568;SDS011;5840;46.894;15.542;2023-07-16T08:32:25;7.60;;;7.10;;
11568;SDS011;5840;46.894;15.542;2023-07-16T08:34:52;7.40;;;6.90;;
11568;SDS011;5840;46.894;15.542;2023-07-16T08:37:18;7.97;;;7.37;;
11568;SDS011;5840;46.894;15.542;2023-07-16T08:39:45;7.33;;;6.70;;
11568;SDS011;5840;46.894;15.542;2023-07-16T08:42:14;7.37;;;6.87;;
11568;SDS011;5840;46.894;15.542;2023-07-16T08:44:41;7.17;;;6.57;;
11568;SDS011;5840;46.894;15.542;2023-07-16T08:47:08;6.70;;;6.20;;
11568;SDS011;5840;46.894;15.542;2023-07-16T08:49:35;7.17;;;6.73;;
11568;SDS011;5840;46.894;15.542;2023-07-16T08:52:03;7.40;;;6.80;;
11568;SDS011;5840;46.894;15.542;2023-07-16T08:54:32;7.10;;;6.60;;
11568;SDS011;5840;46.894;15.542;2023-07-16T08:56:59;7.10;;;6.60;;
11568;SDS011;5840;46.894;15.542;2023-07-16T08:59:28;6.37;;;5.77;;
11568;SDS011;5840;46.894;15.542;2023-07-16T09:01:55;6.47;;;5.97;;
11568;SDS011;5840;46.894;15.542;2023-07-16T09:04:22;6.00;;;5.60;;
11568;SDS011;5840;46.894;15.542;2023-07-16T09:06:49;6.17;;;5.67;;
11568;SDS011;5840;46.894;15.542;2023-07-16T09:09:20;6.70;;;6.20;;
11568;SDS011;5840;46.894;15.542;2023-07-16T09:11:48;5.85;;;5.43;;
11568;SDS011;5840;46.894;15.542;2023-07-16T09:14:16;6.03;;;5.43;;
11568;SDS011;5840;46.894;15.542;2023-07-16T09:16:48;5.65;;;5.25;;
11568;SDS011;5840;46.894;15.542;2023-07-16T09:19:15;6.18;;;5.68;;
11568;SDS011;5840;46.894;15.542;2023-07-16T09:21:45;6.43;;;5.40;;
11568;SDS011;5840;46.894;15.542;2023-07-16T09:24:13;5.53;;;5.23;;
11568;SDS011;5840;46.894;15.542;2023-07-16T09:26:47;6.05;;;5.53;;
11568;SDS011;5840;46.894;15.542;2023-07-16T09:29:14;6.07;;;5.57;;
11568;SDS011;5840;46.894;15.542;2023-07-16T09:31:52;6.15;;;5.65;;
11568;SDS011;5840;46.894;15.542;2023-07-16T09:34:20;5.93;;;5.53;;
11568;SDS011;5840;46.894;15.542;2023-07-16T09:36:47;6.93;;;6.20;;
11568;SDS011;5840;46.894;15.542;2023-07-16T09:39:15;6.20;;;5.80;;
11568;SDS011;5840;46.894;15.542;2023-07-16T09:41:44;6.25;;;5.65;;
11568;SDS011;5840;46.894;15.542;2023-07-16T09:44:13;6.35;;;5.85;;
11568;SDS011;5840;46.894;15.542;2023-07-16T09:46:40;6.30;;;5.80;;
11568;SDS011;5840;46.894;15.542;2023-07-16T09:49:08;6.35;;;5.75;;
11568;SDS011;5840;46.894;15.542;2023-07-16T09:51:36;5.85;;;5.45;;
11568;SDS011;5840;46.894;15.542;2023-07-16T09:54:04;6.07;;;5.65;;
11568;SDS011;5840;46.894;15.542;2023-07-16T09:56:33;6.28;;;5.88;;
11568;SDS011;5840;46.894;15.542;2023-07-16T09:59:01;6.43;;;5.97;;
11568;SDS011;5840;46.894;15.542;2023-07-16T10:01:31;5.80;;;5.47;;
11568;SDS011;5840;46.894;15.542;2023-07-16T10:04:10;6.00;;;5.70;;
11568;SDS011;5840;46.894;15.542;2023-07-16T10:06:47;6.68;;;6.03;;
11568;SDS011;5840;46.894;15.542;2023-07-16T10:12:06;6.55;;;5.93;;
11568;SDS011;5840;46.894;15.542;2023-07-16T10:14:38;6.25;;;5.75;;
11568;SDS011;5840;46.894;15.542;2023-07-16T10:17:06;6.30;;;5.90;;
11568;SDS011;5840;46.894;15.542;2023-07-16T10:19:35;6.20;;;5.65;;
11568;SDS011;5840;46.894;15.542;2023-07-16T10:22:17;6.50;;;5.85;;
11568;SDS011;5840;46.894;15.542;2023-07-16T10:24:44;6.60;;;6.10;;
11568;SDS011;5840;46.894;15.542;2023-07-16T10:27:25;6.78;;;6.28;;
11568;SDS011;5840;46.894;15.542;2023-07-16T10:29:53;6.30;;;5.80;;
11568;SDS011;5840;46.894;15.542;2023-07-16T10:32:21;6.82;;;6.10;;
11568;SDS011;5840;46.894;15.542;2023-07-16T10:34:49;6.70;;;6.22;;
11568;SDS011;5840;46.894;15.542;2023-07-16T10:37:16;6.90;;;6.38;;
11568;SDS011;5840;46.894;15.542;2023-07-16T10:39:46;7.30;;;6.70;;
11568;SDS011;5840;46.894;15.542;2023-07-16T10:42:15;6.55;;;6.13;;
11568;SDS011;5840;46.894;15.542;2023-07-16T10:44:42;6.15;;;5.75;;
11568;SDS011;5840;46.894;15.542;2023-07-16T10:47:10;6.63;;;6.22;;
11568;SDS011;5840;46.894;15.542;2023-07-16T10:49:45;6.35;;;5.85;;
11568;SDS011;5840;46.894;15.542;2023-07-16T10:52:13;6.32;;;5.90;;
11568;SDS011;5840;46.894;15.542;2023-07-16T10:54:40;6.30;;;5.90;;
11568;SDS011;5840;46.894;15.542;2023-07-16T10:57:07;6.70;;;6.20;;
11568;SDS011;5840;46.894;15.542;2023-07-16T10:59:36;6.18;;;5.78;;
11568;SDS011;5840;46.894;15.542;2023-07-16T11:02:04;6.43;;;6.03;;
11568;SDS011;5840;46.894;15.542;2023-07-16T11:04:34;6.50;;;6.00;;
11568;SDS011;5840;46.894;15.542;2023-07-16T11:07:03;6.30;;;5.90;;
11568;SDS011;5840;46.894;15.542;2023-07-16T11:09:34;6.22;;;5.72;;
11568;SDS011;5840;46.894;15.542;2023-07-16T11:12:06;5.85;;;5.43;;
11568;SDS011;5840;46.894;15.542;2023-07-16T11:14:34;6.00;;;5.60;;
11568;SDS011;5840;46.894;15.542;2023-07-16T11:17:04;6.40;;;5.90;;
11568;SDS011;5840;46.894;15.542;2023-07-16T11:19:32;5.93;;;5.45;;
11568;SDS011;5840;46.894;15.542;2023-07-16T11:21:59;6.60;;;6.03;;
11568;SDS011;5840;46.894;15.542;2023-07-16T11:24:27;6.22;;;5.82;;
11568;SDS011;5840;46.894;15.542;2023-07-16T11:26:55;7.00;;;6.43;;
11568;SDS011;5840;46.894;15.542;2023-07-16T11:29:23;6.15;;;5.75;;
11568;SDS011;5840;46.894;15.542;2023-07-16T11:31:50;6.88;;;6.28;;
11568;SDS011;5840;46.894;15.542;2023-07-16T11:34:19;5.93;;;5.55;;
11568;SDS011;5840;46.894;15.542;2023-07-16T11:36:47;6.43;;;6.03;;
11568;SDS011;5840;46.894;15.542;2023-07-16T11:39:15;5.90;;;5.50;;
11568;SDS011;5840;46.894;15.542;2023-07-16T11:41:42;6.43;;;5.90;;
11568;SDS011;5840;46.894;15.542;2023-07-16T11:44:20;5.53;;;5.22;;
11568;SDS011;5840;46.894;15.542;2023-07-16T11:46:47;6.45;;;5.95;;
11568;SDS011;5840;46.894;15.542;2023-07-16T11:49:14;6.38;;;5.80;;
11568;SDS011;5840;46.894;15.542;2023-07-16T11:51:41;5.80;;;5.50;;
11568;SDS011;5840;46.894;15.542;2023-07-16T11:54:09;6.43;;;6.00;;
11568;SDS011;5840;46.894;15.542;2023-07-16T11:56:36;6.20;;;5.68;;
11568;SDS011;5840;46.894;15.542;2023-07-16T11:59:03;5.70;;;5.40;;
11568;SDS011;5840;46.894;15.542;2023-07-16T12:01:31;6.45;;;5.95;;
11568;SDS011;5840;46.894;15.542;2023-07-16T12:03:58;5.95;;;5.55;;
11568;SDS011;5840;46.894;15.542;2023-07-16T12:06:25;6.00;;;5.60;;
11568;SDS011;5840;46.894;15.542;2023-07-16T12:08:52;5.88;;;5.57;;
11568;SDS011;5840;46.894;15.542;2023-07-16T12:11:20;6.20;;;5.80;;
11568;SDS011;5840;46.894;15.542;2023-07-16T12:13:47;6.72;;;6.22;;
11568;SDS011;5840;46.894;15.542;2023-07-16T12:16:14;6.20;;;5.70;;
11568;SDS011;5840;46.894;15.542;2023-07-16T12:18:42;6.63;;;6.13;;
11568;SDS011;5840;46.894;15.542;2023-07-16T12:21:09;6.38;;;5.90;;
11568;SDS011;5840;46.894;15.542;2023-07-16T12:23:36;6.57;;;6.05;;
11568;SDS011;5840;46.894;15.542;2023-07-16T12:26:03;6.40;;;6.00;;
11568;SDS011;5840;46.894;15.542;2023-07-16T12:28:30;6.63;;;6.10;;
11568;SDS011;5840;46.894;15.542;2023-07-16T12:30:56;6.68;;;6.28;;
11568;SDS011;5840;46.894;15.542;2023-07-16T12:33:23;6.70;;;6.30;;
11568;SDS011;5840;46.894;15.542;2023-07-16T12:35:51;6.95;;;6.40;;
11568;SDS011;5840;46.894;15.542;2023-07-16T12:38:18;7.50;;;7.05;;
11568;SDS011;5840;46.894;15.542;2023-07-16T12:40:46;6.72;;;6.25;;
11568;SDS011;5840;46.894;15.542;2023-07-16T12:43:12;6.85;;;6.45;;
11568;SDS011;5840;46.894;15.542;2023-07-16T12:45:39;7.47;;;6.97;;
11568;SDS011;5840;46.894;15.542;2023-07-16T12:48:06;7.60;;;7.10;;
11568;SDS011;5840;46.894;15.542;2023-07-16T12:50:33;7.77;;;7.10;;
11568;SDS011;5840;46.894;15.542;2023-07-16T12:53:02;8.03;;;7.33;;
11568;SDS011;5840;46.894;15.542;2023-07-16T12:55:29;7.80;;;7.30;;
11568;SDS011;5840;46.894;15.542;2023-07-16T12:57:57;7.50;;;6.90;;
11568;SDS011;5840;46.894;15.542;2023-07-16T13:00:24;7.93;;;7.30;;
11568;SDS011;5840;46.894;15.542;2023-07-16T13:02:52;7.47;;;6.90;;
11568;SDS011;5840;46.894;15.542;2023-07-16T13:05:20;7.13;;;6.60;;
11568;SDS011;5840;46.894;15.542;2023-07-16T13:07:48;7.32;;;6.82;;
11568;SDS011;5840;46.894;15.542;2023-07-16T13:10:17;7.20;;;6.70;;
11568;SDS011;5840;46.894;15.542;2023-07-16T13:12:45;7.90;;;7.20;;
11568;SDS011;5840;46.894;15.542;2023-07-16T13:15:13;7.53;;;6.97;;
11568;SDS011;5840;46.894;15.542;2023-07-16T13:17:41;7.57;;;6.97;;
11568;SDS011;5840;46.894;15.542;2023-07-16T13:20:09;7.47;;;6.97;;
11568;SDS011;5840;46.894;15.542;2023-07-16T13:22:38;7.30;;;6.80;;
11568;SDS011;5840;46.894;15.542;2023-07-16T13:25:07;7.33;;;6.73;;
11568;SDS011;5840;46.894;15.542;2023-07-16T13:27:37;6.93;;;6.50;;
11568;SDS011;5840;46.894;15.542;2023-07-16T13:30:06;6.60;;;6.10;;
11568;SDS011;5840;46.894;15.542;2023-07-16T13:32:35;7.40;;;6.63;;
11568;SDS011;5840;46.894;15.542;2023-07-16T13:35:04;7.33;;;6.73;;
11568;SDS011;5840;46.894;15.542;2023-07-16T13:37:32;6.90;;;6.50;;
11568;SDS011;5840;46.894;15.542;2023-07-16T13:40:01;6.97;;;6.57;;
11568;SDS011;5840;46.894;15.542;2023-07-16T13:42:30;6.60;;;6.20;;
11568;SDS011;5840;46.894;15.542;2023-07-16T13:45:00;7.07;;;6.57;;
11568;SDS011;5840;46.894;15.542;2023-07-16T13:47:28;7.37;;;6.87;;
11568;SDS011;5840;46.894;15.542;2023-07-16T13:49:57;7.23;;;6.73;;
11568;SDS011;5840;46.894;15.542;2023-07-16T13:52:26;7.33;;;6.83;;
11568;SDS011;5840;46.894;15.542;2023-07-16T13:54:54;7.03;;;6.63;;
11568;SDS011;5840;46.894;15.542;2023-07-16T13:57:23;6.80;;;6.40;;
11568;SDS011;5840;46.894;15.542;2023-07-16T13:59:52;7.43;;;6.93;;
11568;SDS011;5840;46.894;15.542;2023-07-16T14:02:22;6.33;;;5.83;;
11568;SDS011;5840;46.894;15.542;2023-07-16T14:04:50;6.47;;;6.00;;
11568;SDS011;5840;46.894;15.542;2023-07-16T14:07:19;7.27;;;6.57;;
11568;SDS011;5840;46.894;15.542;2023-07-16T14:09:48;7.60;;;7.00;;
11568;SDS011;5840;46.894;15.542;2023-07-16T14:12:17;6.87;;;6.27;;
11568;SDS011;5840;46.894;15.542;2023-07-16T14:14:45;6.97;;;6.27;;
11568;SDS011;5840;46.894;15.542;2023-07-16T14:17:14;7.03;;;6.53;;
11568;SDS011;5840;46.894;15.542;2023-07-16T14:19:44;7.27;;;6.63;;
11568;SDS011;5840;46.894;15.542;2023-07-16T14:22:13;7.33;;;6.80;;
11568;SDS011;5840;46.894;15.542;2023-07-16T14:24:41;6.77;;;6.17;;
11568;SDS011;5840;46.894;15.542;2023-07-16T14:27:10;6.60;;;6.10;;
11568;SDS011;5840;46.894;15.542;2023-07-16T14:29:39;7.20;;;6.60;;
11568;SDS011;5840;46.894;15.542;2023-07-16T14:32:08;7.20;;;6.70;;
11568;SDS011;5840;46.894;15.542;2023-07-16T14:34:37;7.83;;;7.10;;
11568;SDS011;5840;46.894;15.542;2023-07-16T14:37:07;7.67;;;7.07;;
11568;SDS011;5840;46.894;15.542;2023-07-16T14:39:36;7.90;;;7.30;;
11568;SDS011;5840;46.894;15.542;2023-07-16T14:42:04;7.00;;;6.40;;
11568;SDS011;5840;46.894;15.542;2023-07-16T14:44:33;7.30;;;6.70;;
11568;SDS011;5840;46.894;15.542;2023-07-16T14:47:01;6.57;;;6.07;;
11568;SDS011;5840;46.894;15.542;2023-07-16T14:49:30;6.77;;;6.27;;
11568;SDS011;5840;46.894;15.542;2023-07-16T14:51:59;6.90;;;6.50;;